Gambill, Indiana
Current Conditions -  °F | °C
As of 6:15 PM on Wednesday 26 Nov 2014 (Local Time) from KRSV Reporting Station
Overcast Overcast  
Wind Chill: 34°   Ceiling: 4400
Heat Index: 34°   Visibility: 10mi
Dew Point: 28°   Wind: 0mph
Humidity: 79%   Direction: NA
Pressure: 30.07"   Gusts: NA
Location:  39.0631°N, 87.2571°W
Report Text: KRSV 262315Z AUTO 00000KT 10SM BKN044 OVC050 01/M02 A3007 RMK AO2 T00111022
Loading
Personal Weather Stations






























Interactive Weather Map New forecast layout! Learn more

10-Day Weather Forecast

Advertisements
Track Severe Weather on mobile